sensor_id;sensor_type;location;lat;lon;timestamp;P1;durP1;ratioP1;P2;durP2;ratioP2
56391;SDS011;76123;53.584;9.978;2024-02-26T00:00:49;19.92;;;9.50;;
56391;SDS011;76123;53.584;9.978;2024-02-26T00:03:15;20.85;;;9.68;;
56391;SDS011;76123;53.584;9.978;2024-02-26T00:05:42;17.85;;;9.27;;
56391;SDS011;76123;53.584;9.978;2024-02-26T00:08:08;20.98;;;9.80;;
56391;SDS011;76123;53.584;9.978;2024-02-26T00:10:35;19.77;;;9.85;;
56391;SDS011;76123;53.584;9.978;2024-02-26T00:13:01;18.90;;;9.68;;
56391;SDS011;76123;53.584;9.978;2024-02-26T00:15:28;20.13;;;9.77;;
56391;SDS011;76123;53.584;9.978;2024-02-26T00:17:56;21.25;;;9.85;;
56391;SDS011;76123;53.584;9.978;2024-02-26T00:20:23;19.00;;;9.15;;
56391;SDS011;76123;53.584;9.978;2024-02-26T00:22:49;21.70;;;9.57;;
56391;SDS011;76123;53.584;9.978;2024-02-26T00:25:16;19.33;;;9.90;;
56391;SDS011;76123;53.584;9.978;2024-02-26T00:27:42;17.70;;;9.77;;
56391;SDS011;76123;53.584;9.978;2024-02-26T00:30:09;21.02;;;10.23;;
56391;SDS011;76123;53.584;9.978;2024-02-26T00:32:37;19.83;;;9.35;;
56391;SDS011;76123;53.584;9.978;2024-02-26T00:35:05;20.20;;;9.88;;
56391;SDS011;76123;53.584;9.978;2024-02-26T00:37:34;21.98;;;10.25;;
56391;SDS011;76123;53.584;9.978;2024-02-26T00:40:01;22.08;;;10.80;;
56391;SDS011;76123;53.584;9.978;2024-02-26T00:42:27;22.23;;;11.55;;
56391;SDS011;76123;53.584;9.978;2024-02-26T00:44:54;25.60;;;10.70;;
56391;SDS011;76123;53.584;9.978;2024-02-26T00:47:20;23.27;;;12.18;;
56391;SDS011;76123;53.584;9.978;2024-02-26T00:49:47;21.00;;;10.18;;
56391;SDS011;76123;53.584;9.978;2024-02-26T00:52:15;25.73;;;11.75;;
56391;SDS011;76123;53.584;9.978;2024-02-26T00:54:41;25.90;;;11.52;;
56391;SDS011;76123;53.584;9.978;2024-02-26T00:57:08;24.23;;;11.30;;
56391;SDS011;76123;53.584;9.978;2024-02-26T00:59:35;25.38;;;11.77;;
56391;SDS011;76123;53.584;9.978;2024-02-26T01:02:01;25.83;;;11.63;;
56391;SDS011;76123;53.584;9.978;2024-02-26T01:04:30;23.45;;;11.35;;
56391;SDS011;76123;53.584;9.978;2024-02-26T01:06:57;23.10;;;11.00;;
56391;SDS011;76123;53.584;9.978;2024-02-26T01:09:24;25.75;;;11.75;;
56391;SDS011;76123;53.584;9.978;2024-02-26T01:11:50;23.85;;;11.77;;
56391;SDS011;76123;53.584;9.978;2024-02-26T01:14:17;31.23;;;12.10;;
56391;SDS011;76123;53.584;9.978;2024-02-26T01:16:43;23.00;;;11.68;;
56391;SDS011;76123;53.584;9.978;2024-02-26T01:19:10;26.20;;;11.75;;
56391;SDS011;76123;53.584;9.978;2024-02-26T01:21:36;23.70;;;11.07;;
56391;SDS011;76123;53.584;9.978;2024-02-26T01:24:03;27.80;;;12.27;;
56391;SDS011;76123;53.584;9.978;2024-02-26T01:26:31;28.27;;;11.85;;
56391;SDS011;76123;53.584;9.978;2024-02-26T01:28:58;27.98;;;11.98;;
56391;SDS011;76123;53.584;9.978;2024-02-26T01:31:24;28.27;;;12.45;;
56391;SDS011;76123;53.584;9.978;2024-02-26T01:33:51;27.65;;;11.85;;
56391;SDS011;76123;53.584;9.978;2024-02-26T01:36:17;23.42;;;11.13;;
56391;SDS011;76123;53.584;9.978;2024-02-26T01:38:44;24.95;;;11.57;;
56391;SDS011;76123;53.584;9.978;2024-02-26T01:41:10;21.35;;;10.60;;
56391;SDS011;76123;53.584;9.978;2024-02-26T01:43:38;21.85;;;10.02;;
56391;SDS011;76123;53.584;9.978;2024-02-26T01:46:05;21.27;;;9.57;;
56391;SDS011;76123;53.584;9.978;2024-02-26T01:48:35;19.42;;;9.55;;
56391;SDS011;76123;53.584;9.978;2024-02-26T01:51:02;19.67;;;9.88;;
56391;SDS011;76123;53.584;9.978;2024-02-26T01:53:29;17.13;;;9.68;;
56391;SDS011;76123;53.584;9.978;2024-02-26T01:55:56;20.67;;;9.73;;
56391;SDS011;76123;53.584;9.978;2024-02-26T01:58:22;19.63;;;9.77;;
56391;SDS011;76123;53.584;9.978;2024-02-26T02:00:50;18.67;;;9.27;;
56391;SDS011;76123;53.584;9.978;2024-02-26T02:03:17;16.95;;;9.30;;
56391;SDS011;76123;53.584;9.978;2024-02-26T02:05:44;15.75;;;8.50;;
56391;SDS011;76123;53.584;9.978;2024-02-26T02:08:11;17.75;;;9.82;;
56391;SDS011;76123;53.584;9.978;2024-02-26T02:10:37;15.63;;;9.27;;
56391;SDS011;76123;53.584;9.978;2024-02-26T02:13:04;21.25;;;10.23;;
56391;SDS011;76123;53.584;9.978;2024-02-26T02:15:31;17.48;;;9.70;;
56391;SDS011;76123;53.584;9.978;2024-02-26T02:17:59;19.02;;;10.43;;
56391;SDS011;76123;53.584;9.978;2024-02-26T02:20:31;18.50;;;10.13;;
56391;SDS011;76123;53.584;9.978;2024-02-26T02:22:58;19.73;;;10.77;;
56391;SDS011;76123;53.584;9.978;2024-02-26T02:25:25;22.30;;;11.15;;
56391;SDS011;76123;53.584;9.978;2024-02-26T02:27:51;21.17;;;12.23;;
56391;SDS011;76123;53.584;9.978;2024-02-26T02:30:20;19.65;;;10.60;;
56391;SDS011;76123;53.584;9.978;2024-02-26T02:32:47;17.95;;;10.93;;
56391;SDS011;76123;53.584;9.978;2024-02-26T02:35:14;21.20;;;10.93;;
56391;SDS011;76123;53.584;9.978;2024-02-26T02:37:42;21.27;;;11.38;;
56391;SDS011;76123;53.584;9.978;2024-02-26T02:40:08;18.92;;;11.07;;
56391;SDS011;76123;53.584;9.978;2024-02-26T02:42:35;20.67;;;11.43;;
56391;SDS011;76123;53.584;9.978;2024-02-26T02:45:02;23.50;;;12.20;;
56391;SDS011;76123;53.584;9.978;2024-02-26T02:47:28;23.58;;;12.48;;
56391;SDS011;76123;53.584;9.978;2024-02-26T02:49:55;22.90;;;11.70;;
56391;SDS011;76123;53.584;9.978;2024-02-26T02:52:21;20.92;;;10.90;;
56391;SDS011;76123;53.584;9.978;2024-02-26T02:54:49;23.77;;;11.68;;
56391;SDS011;76123;53.584;9.978;2024-02-26T02:57:16;21.60;;;11.88;;
56391;SDS011;76123;53.584;9.978;2024-02-26T02:59:43;22.33;;;12.05;;
56391;SDS011;76123;53.584;9.978;2024-02-26T03:02:09;22.98;;;12.30;;
56391;SDS011;76123;53.584;9.978;2024-02-26T03:04:36;21.33;;;12.43;;
56391;SDS011;76123;53.584;9.978;2024-02-26T03:07:03;26.63;;;13.38;;
56391;SDS011;76123;53.584;9.978;2024-02-26T03:09:29;23.55;;;12.77;;
56391;SDS011;76123;53.584;9.978;2024-02-26T03:11:57;25.70;;;13.90;;
56391;SDS011;76123;53.584;9.978;2024-02-26T03:14:24;27.63;;;14.15;;
56391;SDS011;76123;53.584;9.978;2024-02-26T03:16:52;27.65;;;13.60;;
56391;SDS011;76123;53.584;9.978;2024-02-26T03:19:20;26.42;;;14.20;;
56391;SDS011;76123;53.584;9.978;2024-02-26T03:21:46;24.13;;;13.45;;
56391;SDS011;76123;53.584;9.978;2024-02-26T03:24:13;24.67;;;13.23;;
56391;SDS011;76123;53.584;9.978;2024-02-26T03:26:39;25.38;;;13.00;;
56391;SDS011;76123;53.584;9.978;2024-02-26T03:29:07;24.77;;;13.55;;
56391;SDS011;76123;53.584;9.978;2024-02-26T03:31:34;26.02;;;13.30;;
56391;SDS011;76123;53.584;9.978;2024-02-26T03:34:01;29.45;;;14.15;;
56391;SDS011;76123;53.584;9.978;2024-02-26T03:36:27;26.30;;;14.02;;
56391;SDS011;76123;53.584;9.978;2024-02-26T03:38:54;24.98;;;13.52;;
56391;SDS011;76123;53.584;9.978;2024-02-26T03:41:20;24.52;;;13.57;;
56391;SDS011;76123;53.584;9.978;2024-02-26T03:43:47;25.73;;;13.27;;
56391;SDS011;76123;53.584;9.978;2024-02-26T03:46:15;27.85;;;13.98;;
56391;SDS011;76123;53.584;9.978;2024-02-26T03:48:41;25.90;;;13.65;;
56391;SDS011;76123;53.584;9.978;2024-02-26T03:51:08;25.83;;;13.48;;
56391;SDS011;76123;53.584;9.978;2024-02-26T03:53:35;25.90;;;14.30;;
56391;SDS011;76123;53.584;9.978;2024-02-26T03:56:03;28.55;;;14.18;;
56391;SDS011;76123;53.584;9.978;2024-02-26T03:58:30;28.45;;;13.95;;
56391;SDS011;76123;53.584;9.978;2024-02-26T04:00:56;27.60;;;14.65;;
56391;SDS011;76123;53.584;9.978;2024-02-26T04:03:24;25.48;;;14.25;;
56391;SDS011;76123;53.584;9.978;2024-02-26T04:05:51;26.95;;;13.52;;
56391;SDS011;76123;53.584;9.978;2024-02-26T04:08:18;26.23;;;13.98;;
56391;SDS011;76123;53.584;9.978;2024-02-26T04:10:44;27.27;;;14.48;;
56391;SDS011;76123;53.584;9.978;2024-02-26T04:13:11;27.10;;;14.98;;
56391;SDS011;76123;53.584;9.978;2024-02-26T04:15:37;27.90;;;14.38;;
56391;SDS011;76123;53.584;9.978;2024-02-26T04:18:04;26.55;;;13.95;;
56391;SDS011;76123;53.584;9.978;2024-02-26T04:20:32;24.63;;;13.73;;
56391;SDS011;76123;53.584;9.978;2024-02-26T04:22:59;29.35;;;14.63;;
56391;SDS011;76123;53.584;9.978;2024-02-26T04:25:25;27.92;;;14.45;;
56391;SDS011;76123;53.584;9.978;2024-02-26T04:27:53;25.77;;;13.50;;
56391;SDS011;76123;53.584;9.978;2024-02-26T04:30:20;29.17;;;14.32;;
56391;SDS011;76123;53.584;9.978;2024-02-26T04:32:46;27.88;;;13.75;;
56391;SDS011;76123;53.584;9.978;2024-02-26T04:35:13;25.95;;;14.13;;
56391;SDS011;76123;53.584;9.978;2024-02-26T04:37:41;25.55;;;13.77;;
56391;SDS011;76123;53.584;9.978;2024-02-26T04:40:07;24.92;;;13.07;;
56391;SDS011;76123;53.584;9.978;2024-02-26T04:42:34;25.42;;;13.82;;
56391;SDS011;76123;53.584;9.978;2024-02-26T04:45:01;25.25;;;13.52;;
56391;SDS011;76123;53.584;9.978;2024-02-26T04:47:28;27.92;;;14.55;;
56391;SDS011;76123;53.584;9.978;2024-02-26T04:49:55;26.63;;;14.48;;
56391;SDS011;76123;53.584;9.978;2024-02-26T04:52:21;27.65;;;13.80;;
56391;SDS011;76123;53.584;9.978;2024-02-26T04:54:49;25.52;;;13.13;;
56391;SDS011;76123;53.584;9.978;2024-02-26T04:57:16;26.77;;;14.32;;
56391;SDS011;76123;53.584;9.978;2024-02-26T04:59:43;23.95;;;13.07;;
56391;SDS011;76123;53.584;9.978;2024-02-26T05:02:10;26.27;;;13.40;;
56391;SDS011;76123;53.584;9.978;2024-02-26T05:04:37;25.60;;;13.48;;
56391;SDS011;76123;53.584;9.978;2024-02-26T05:07:04;27.48;;;13.52;;
56391;SDS011;76123;53.584;9.978;2024-02-26T05:09:31;25.60;;;13.68;;
56391;SDS011;76123;53.584;9.978;2024-02-26T05:11:59;25.33;;;13.27;;
56391;SDS011;76123;53.584;9.978;2024-02-26T05:14:26;27.58;;;13.63;;
56391;SDS011;76123;53.584;9.978;2024-02-26T05:16:52;26.30;;;13.35;;
56391;SDS011;76123;53.584;9.978;2024-02-26T05:19:18;25.50;;;13.30;;
56391;SDS011;76123;53.584;9.978;2024-02-26T05:21:45;25.27;;;13.25;;
56391;SDS011;76123;53.584;9.978;2024-02-26T05:24:15;27.23;;;13.63;;
56391;SDS011;76123;53.584;9.978;2024-02-26T05:26:42;25.17;;;13.32;;
56391;SDS011;76123;53.584;9.978;2024-02-26T05:29:10;26.50;;;13.18;;
56391;SDS011;76123;53.584;9.978;2024-02-26T05:31:37;27.23;;;13.57;;
56391;SDS011;76123;53.584;9.978;2024-02-26T05:34:03;24.45;;;12.90;;
56391;SDS011;76123;53.584;9.978;2024-02-26T05:36:30;24.27;;;12.68;;
56391;SDS011;76123;53.584;9.978;2024-02-26T05:38:58;26.23;;;13.52;;
56391;SDS011;76123;53.584;9.978;2024-02-26T05:41:25;26.55;;;13.30;;
56391;SDS011;76123;53.584;9.978;2024-02-26T05:43:52;26.50;;;13.55;;
56391;SDS011;76123;53.584;9.978;2024-02-26T05:46:20;25.00;;;13.23;;
56391;SDS011;76123;53.584;9.978;2024-02-26T05:48:48;26.92;;;13.23;;
56391;SDS011;76123;53.584;9.978;2024-02-26T05:51:16;26.10;;;12.68;;
56391;SDS011;76123;53.584;9.978;2024-02-26T05:53:43;24.38;;;12.55;;
56391;SDS011;76123;53.584;9.978;2024-02-26T05:56:10;26.15;;;13.70;;
56391;SDS011;76123;53.584;9.978;2024-02-26T05:58:36;27.08;;;13.00;;
56391;SDS011;76123;53.584;9.978;2024-02-26T06:01:03;22.42;;;12.30;;
56391;SDS011;76123;53.584;9.978;2024-02-26T06:03:31;23.60;;;12.98;;
56391;SDS011;76123;53.584;9.978;2024-02-26T06:05:57;23.33;;;12.43;;
56391;SDS011;76123;53.584;9.978;2024-02-26T06:08:24;24.10;;;12.32;;
56391;SDS011;76123;53.584;9.978;2024-02-26T06:10:51;26.20;;;12.52;;
56391;SDS011;76123;53.584;9.978;2024-02-26T06:13:17;24.58;;;12.48;;
56391;SDS011;76123;53.584;9.978;2024-02-26T06:15:44;24.83;;;12.45;;
56391;SDS011;76123;53.584;9.978;2024-02-26T06:18:10;23.38;;;12.15;;
56391;SDS011;76123;53.584;9.978;2024-02-26T06:20:38;25.30;;;12.52;;
56391;SDS011;76123;53.584;9.978;2024-02-26T06:23:05;24.40;;;13.10;;
56391;SDS011;76123;53.584;9.978;2024-02-26T06:25:32;22.83;;;12.23;;
56391;SDS011;76123;53.584;9.978;2024-02-26T06:27:58;21.75;;;11.73;;
56391;SDS011;76123;53.584;9.978;2024-02-26T06:30:25;24.67;;;12.75;;
56391;SDS011;76123;53.584;9.978;2024-02-26T06:32:51;22.55;;;11.85;;
56391;SDS011;76123;53.584;9.978;2024-02-26T06:35:18;22.85;;;12.02;;
56391;SDS011;76123;53.584;9.978;2024-02-26T06:37:46;24.33;;;12.57;;
56391;SDS011;76123;53.584;9.978;2024-02-26T06:40:15;21.73;;;12.02;;
56391;SDS011;76123;53.584;9.978;2024-02-26T06:42:42;24.35;;;12.30;;
56391;SDS011;76123;53.584;9.978;2024-02-26T06:45:09;23.63;;;12.35;;
56391;SDS011;76123;53.584;9.978;2024-02-26T06:47:35;24.55;;;12.30;;
56391;SDS011;76123;53.584;9.978;2024-02-26T06:50:02;25.83;;;13.10;;
56391;SDS011;76123;53.584;9.978;2024-02-26T06:52:29;25.35;;;12.50;;
56391;SDS011;76123;53.584;9.978;2024-02-26T06:54:57;23.05;;;12.25;;
56391;SDS011;76123;53.584;9.978;2024-02-26T06:57:24;25.75;;;13.05;;
56391;SDS011;76123;53.584;9.978;2024-02-26T06:59:50;26.13;;;12.98;;
56391;SDS011;76123;53.584;9.978;2024-02-26T07:02:17;25.50;;;12.75;;
56391;SDS011;76123;53.584;9.978;2024-02-26T07:04:44;29.75;;;13.52;;
56391;SDS011;76123;53.584;9.978;2024-02-26T07:07:11;28.55;;;13.43;;
56391;SDS011;76123;53.584;9.978;2024-02-26T07:09:37;25.17;;;12.90;;
56391;SDS011;76123;53.584;9.978;2024-02-26T07:12:05;27.23;;;13.05;;
56391;SDS011;76123;53.584;9.978;2024-02-26T07:14:32;27.60;;;13.05;;
56391;SDS011;76123;53.584;9.978;2024-02-26T07:16:59;25.10;;;13.02;;
56391;SDS011;76123;53.584;9.978;2024-02-26T07:19:25;28.67;;;13.65;;
56391;SDS011;76123;53.584;9.978;2024-02-26T07:21:52;25.23;;;12.75;;
56391;SDS011;76123;53.584;9.978;2024-02-26T07:24:18;28.98;;;13.55;;
56391;SDS011;76123;53.584;9.978;2024-02-26T07:26:45;27.38;;;13.18;;
56391;SDS011;76123;53.584;9.978;2024-02-26T07:29:13;27.60;;;13.73;;
56391;SDS011;76123;53.584;9.978;2024-02-26T07:31:39;30.55;;;13.27;;
56391;SDS011;76123;53.584;9.978;2024-02-26T07:34:06;25.02;;;12.95;;
56391;SDS011;76123;53.584;9.978;2024-02-26T07:36:33;27.55;;;12.82;;
56391;SDS011;76123;53.584;9.978;2024-02-26T07:38:59;23.33;;;11.93;;
56391;SDS011;76123;53.584;9.978;2024-02-26T07:41:26;23.50;;;11.95;;
56391;SDS011;76123;53.584;9.978;2024-02-26T07:43:53;25.58;;;12.43;;
56391;SDS011;76123;53.584;9.978;2024-02-26T07:46:21;23.83;;;11.55;;
56391;SDS011;76123;53.584;9.978;2024-02-26T07:48:47;22.10;;;11.95;;
56391;SDS011;76123;53.584;9.978;2024-02-26T07:51:14;24.15;;;11.35;;
56391;SDS011;76123;53.584;9.978;2024-02-26T07:53:42;24.17;;;11.77;;
56391;SDS011;76123;53.584;9.978;2024-02-26T07:56:09;23.25;;;12.13;;
56391;SDS011;76123;53.584;9.978;2024-02-26T07:58:35;23.90;;;11.73;;
56391;SDS011;76123;53.584;9.978;2024-02-26T08:01:02;26.55;;;11.55;;
56391;SDS011;76123;53.584;9.978;2024-02-26T08:03:30;23.98;;;11.88;;
56391;SDS011;76123;53.584;9.978;2024-02-26T08:05:57;26.38;;;12.75;;
56391;SDS011;76123;53.584;9.978;2024-02-26T08:08:23;22.95;;;11.88;;
56391;SDS011;76123;53.584;9.978;2024-02-26T08:10:50;26.17;;;11.80;;
56391;SDS011;76123;53.584;9.978;2024-02-26T08:13:16;22.90;;;11.30;;
56391;SDS011;76123;53.584;9.978;2024-02-26T08:15:43;26.77;;;12.70;;
56391;SDS011;76123;53.584;9.978;2024-02-26T08:18:10;22.67;;;12.27;;
56391;SDS011;76123;53.584;9.978;2024-02-26T08:20:37;23.15;;;11.57;;
56391;SDS011;76123;53.584;9.978;2024-02-26T08:23:04;23.05;;;12.30;;
56391;SDS011;76123;53.584;9.978;2024-02-26T08:25:31;23.30;;;11.73;;
56391;SDS011;76123;53.584;9.978;2024-02-26T08:27:57;24.10;;;12.95;;
56391;SDS011;76123;53.584;9.978;2024-02-26T08:30:24;24.60;;;12.13;;
56391;SDS011;76123;53.584;9.978;2024-02-26T08:32:51;23.23;;;11.60;;
56391;SDS011;76123;53.584;9.978;2024-02-26T08:35:17;26.13;;;13.30;;
56391;SDS011;76123;53.584;9.978;2024-02-26T08:37:46;24.35;;;12.63;;
56391;SDS011;76123;53.584;9.978;2024-02-26T08:40:13;25.80;;;12.23;;
56391;SDS011;76123;53.584;9.978;2024-02-26T08:42:40;24.77;;;11.32;;
56391;SDS011;76123;53.584;9.978;2024-02-26T08:45:07;23.42;;;12.10;;
56391;SDS011;76123;53.584;9.978;2024-02-26T08:47:34;23.48;;;11.75;;
56391;SDS011;76123;53.584;9.978;2024-02-26T08:50:00;21.98;;;11.00;;
56391;SDS011;76123;53.584;9.978;2024-02-26T08:52:27;23.25;;;11.52;;
56391;SDS011;76123;53.584;9.978;2024-02-26T08:54:55;25.40;;;11.95;;
56391;SDS011;76123;53.584;9.978;2024-02-26T08:57:22;22.55;;;11.35;;
56391;SDS011;76123;53.584;9.978;2024-02-26T08:59:48;23.20;;;12.05;;
56391;SDS011;76123;53.584;9.978;2024-02-26T09:02:15;22.70;;;11.35;;
56391;SDS011;76123;53.584;9.978;2024-02-26T09:04:42;23.98;;;12.25;;
56391;SDS011;76123;53.584;9.978;2024-02-26T09:07:09;21.90;;;11.30;;
56391;SDS011;76123;53.584;9.978;2024-02-26T09:09:35;22.73;;;11.05;;
56391;SDS011;76123;53.584;9.978;2024-02-26T09:12:04;23.27;;;10.90;;
56391;SDS011;76123;53.584;9.978;2024-02-26T09:14:30;25.38;;;11.38;;
56391;SDS011;76123;53.584;9.978;2024-02-26T09:16:57;22.15;;;10.05;;
56391;SDS011;76123;53.584;9.978;2024-02-26T09:19:24;25.75;;;11.27;;
56391;SDS011;76123;53.584;9.978;2024-02-26T09:21:52;22.20;;;11.43;;
56391;SDS011;76123;53.584;9.978;2024-02-26T09:24:22;20.80;;;10.48;;
56391;SDS011;76123;53.584;9.978;2024-02-26T09:26:48;19.05;;;10.13;;
56391;SDS011;76123;53.584;9.978;2024-02-26T09:29:16;20.55;;;10.45;;
56391;SDS011;76123;53.584;9.978;2024-02-26T09:31:43;21.45;;;10.18;;
56391;SDS011;76123;53.584;9.978;2024-02-26T09:34:12;21.88;;;10.30;;
56391;SDS011;76123;53.584;9.978;2024-02-26T09:36:38;23.77;;;11.05;;
56391;SDS011;76123;53.584;9.978;2024-02-26T09:39:05;21.58;;;10.35;;
56391;SDS011;76123;53.584;9.978;2024-02-26T09:41:36;20.52;;;9.98;;
56391;SDS011;76123;53.584;9.978;2024-02-26T09:44:03;20.30;;;10.40;;
56391;SDS011;76123;53.584;9.978;2024-02-26T09:46:33;22.08;;;10.88;;
56391;SDS011;76123;53.584;9.978;2024-02-26T09:49:00;19.83;;;9.95;;
56391;SDS011;76123;53.584;9.978;2024-02-26T09:51:27;22.35;;;10.23;;
56391;SDS011;76123;53.584;9.978;2024-02-26T09:53:54;20.60;;;10.05;;
56391;SDS011;76123;53.584;9.978;2024-02-26T09:56:22;21.65;;;10.10;;
56391;SDS011;76123;53.584;9.978;2024-02-26T09:58:49;23.45;;;10.73;;
56391;SDS011;76123;53.584;9.978;2024-02-26T10:01:19;20.58;;;10.30;;
56391;SDS011;76123;53.584;9.978;2024-02-26T10:03:50;18.83;;;10.02;;
56391;SDS011;76123;53.584;9.978;2024-02-26T10:06:23;20.98;;;10.70;;
56391;SDS011;76123;53.584;9.978;2024-02-26T10:08:50;23.98;;;11.38;;
56391;SDS011;76123;53.584;9.978;2024-02-26T10:11:18;24.27;;;12.10;;
56391;SDS011;76123;53.584;9.978;2024-02-26T10:13:45;21.52;;;11.00;;
56391;SDS011;76123;53.584;9.978;2024-02-26T10:16:12;22.40;;;11.23;;
56391;SDS011;76123;53.584;9.978;2024-02-26T10:18:49;21.90;;;10.90;;
56391;SDS011;76123;53.584;9.978;2024-02-26T10:21:18;22.70;;;11.30;;
56391;SDS011;76123;53.584;9.978;2024-02-26T10:23:45;22.70;;;10.90;;
56391;SDS011;76123;53.584;9.978;2024-02-26T10:26:12;20.55;;;10.25;;
56391;SDS011;76123;53.584;9.978;2024-02-26T10:28:41;22.02;;;10.93;;
56391;SDS011;76123;53.584;9.978;2024-02-26T10:31:09;21.48;;;10.43;;
56391;SDS011;76123;53.584;9.978;2024-02-26T10:33:36;21.25;;;10.25;;
56391;SDS011;76123;53.584;9.978;2024-02-26T10:36:05;20.88;;;10.02;;
56391;SDS011;76123;53.584;9.978;2024-02-26T10:38:33;25.90;;;12.10;;
56391;SDS011;76123;53.584;9.978;2024-02-26T10:41:01;25.13;;;11.55;;
56391;SDS011;76123;53.584;9.978;2024-02-26T10:43:28;27.55;;;12.07;;
56391;SDS011;76123;53.584;9.978;2024-02-26T10:45:54;22.73;;;11.60;;
56391;SDS011;76123;53.584;9.978;2024-02-26T10:48:22;21.48;;;10.32;;
56391;SDS011;76123;53.584;9.978;2024-02-26T10:50:48;20.85;;;10.75;;
56391;SDS011;76123;53.584;9.978;2024-02-26T10:53:19;23.50;;;10.88;;
56391;SDS011;76123;53.584;9.978;2024-02-26T10:55:48;22.73;;;10.95;;
56391;SDS011;76123;53.584;9.978;2024-02-26T10:58:16;21.67;;;10.40;;
56391;SDS011;76123;53.584;9.978;2024-02-26T11:00:43;19.95;;;10.00;;
56391;SDS011;76123;53.584;9.978;2024-02-26T11:03:10;22.80;;;10.32;;
56391;SDS011;76123;53.584;9.978;2024-02-26T11:05:38;20.13;;;10.38;;
56391;SDS011;76123;53.584;9.978;2024-02-26T11:08:07;23.70;;;10.40;;
56391;SDS011;76123;53.584;9.978;2024-02-26T11:10:37;24.10;;;11.25;;
56391;SDS011;76123;53.584;9.978;2024-02-26T11:13:06;19.92;;;10.32;;
56391;SDS011;76123;53.584;9.978;2024-02-26T11:15:35;19.65;;;9.80;;
56391;SDS011;76123;53.584;9.978;2024-02-26T11:18:03;21.38;;;10.90;;
56391;SDS011;76123;53.584;9.978;2024-02-26T11:20:30;17.58;;;9.18;;
56391;SDS011;76123;53.584;9.978;2024-02-26T11:22:59;17.83;;;9.43;;
56391;SDS011;76123;53.584;9.978;2024-02-26T11:25:25;19.50;;;9.98;;
56391;SDS011;76123;53.584;9.978;2024-02-26T11:27:54;17.02;;;8.77;;
56391;SDS011;76123;53.584;9.978;2024-02-26T11:30:25;17.73;;;9.52;;
56391;SDS011;76123;53.584;9.978;2024-02-26T11:32:55;19.95;;;9.88;;
56391;SDS011;76123;53.584;9.978;2024-02-26T11:35:22;17.10;;;8.55;;
56391;SDS011;76123;53.584;9.978;2024-02-26T11:37:55;17.42;;;8.88;;
56391;SDS011;76123;53.584;9.978;2024-02-26T11:40:23;18.38;;;9.02;;
56391;SDS011;76123;53.584;9.978;2024-02-26T11:42:50;15.05;;;8.82;;
56391;SDS011;76123;53.584;9.978;2024-02-26T11:48:24;17.58;;;9.10;;
56391;SDS011;76123;53.584;9.978;2024-02-26T11:50:51;13.82;;;8.05;;
56391;SDS011;76123;53.584;9.978;2024-02-26T11:53:19;14.77;;;7.93;;
56391;SDS011;76123;53.584;9.978;2024-02-26T11:55:46;14.13;;;8.13;;
56391;SDS011;76123;53.584;9.978;2024-02-26T11:58:13;14.00;;;7.90;;
56391;SDS011;76123;53.584;9.978;2024-02-26T12:00:40;14.35;;;7.80;;
56391;SDS011;76123;53.584;9.978;2024-02-26T12:03:08;14.90;;;7.38;;
56391;SDS011;76123;53.584;9.978;2024-02-26T12:05:37;16.00;;;8.60;;
56391;SDS011;76123;53.584;9.978;2024-02-26T12:08:05;15.90;;;8.27;;
56391;SDS011;76123;53.584;9.978;2024-02-26T12:10:33;14.75;;;8.13;;
56391;SDS011;76123;53.584;9.978;2024-02-26T12:13:04;16.65;;;7.65;;
56391;SDS011;76123;53.584;9.978;2024-02-26T12:15:32;15.63;;;7.88;;
56391;SDS011;76123;53.584;9.978;2024-02-26T12:18:02;14.65;;;8.07;;
56391;SDS011;76123;53.584;9.978;2024-02-26T12:20:32;12.80;;;7.57;;
56391;SDS011;76123;53.584;9.978;2024-02-26T12:22:58;14.50;;;8.73;;
56391;SDS011;76123;53.584;9.978;2024-02-26T12:25:26;13.98;;;8.07;;
56391;SDS011;76123;53.584;9.978;2024-02-26T12:27:54;16.17;;;8.80;;
56391;SDS011;76123;53.584;9.978;2024-02-26T12:30:21;16.52;;;8.68;;
56391;SDS011;76123;53.584;9.978;2024-02-26T12:32:48;14.68;;;8.75;;
56391;SDS011;76123;53.584;9.978;2024-02-26T12:35:16;17.35;;;9.43;;
56391;SDS011;76123;53.584;9.978;2024-02-26T12:37:44;17.52;;;9.13;;
56391;SDS011;76123;53.584;9.978;2024-02-26T12:40:12;15.07;;;8.23;;
56391;SDS011;76123;53.584;9.978;2024-02-26T12:42:39;14.13;;;7.63;;
56391;SDS011;76123;53.584;9.978;2024-02-26T12:45:07;15.52;;;8.80;;
56391;SDS011;76123;53.584;9.978;2024-02-26T12:47:35;15.93;;;8.43;;
56391;SDS011;76123;53.584;9.978;2024-02-26T12:50:03;15.88;;;8.27;;
56391;SDS011;76123;53.584;9.978;2024-02-26T12:52:31;15.43;;;8.15;;
56391;SDS011;76123;53.584;9.978;2024-02-26T12:55:00;16.52;;;8.43;;
56391;SDS011;76123;53.584;9.978;2024-02-26T12:57:28;19.55;;;9.55;;
56391;SDS011;76123;53.584;9.978;2024-02-26T12:59:56;16.58;;;9.40;;
56391;SDS011;76123;53.584;9.978;2024-02-26T13:02:23;16.00;;;9.00;;
56391;SDS011;76123;53.584;9.978;2024-02-26T13:04:50;17.02;;;8.73;;
56391;SDS011;76123;53.584;9.978;2024-02-26T13:07:17;15.25;;;8.38;;
56391;SDS011;76123;53.584;9.978;2024-02-26T13:09:44;16.85;;;8.40;;
56391;SDS011;76123;53.584;9.978;2024-02-26T13:12:12;17.08;;;8.88;;
56391;SDS011;76123;53.584;9.978;2024-02-26T13:14:39;15.82;;;8.00;;
56391;SDS011;76123;53.584;9.978;2024-02-26T13:17:06;14.65;;;8.15;;
56391;SDS011;76123;53.584;9.978;2024-02-26T13:19:33;14.75;;;7.47;;
56391;SDS011;76123;53.584;9.978;2024-02-26T13:22:03;15.98;;;8.75;;
56391;SDS011;76123;53.584;9.978;2024-02-26T13:24:31;16.65;;;7.63;;
56391;SDS011;76123;53.584;9.978;2024-02-26T13:26:58;16.30;;;8.30;;
56391;SDS011;76123;53.584;9.978;2024-02-26T13:29:26;16.17;;;8.45;;
56391;SDS011;76123;53.584;9.978;2024-02-26T13:31:55;16.48;;;7.93;;
56391;SDS011;76123;53.584;9.978;2024-02-26T13:34:23;16.83;;;8.43;;
56391;SDS011;76123;53.584;9.978;2024-02-26T13:36:51;15.90;;;8.77;;
56391;SDS011;76123;53.584;9.978;2024-02-26T13:39:21;16.35;;;8.45;;
56391;SDS011;76123;53.584;9.978;2024-02-26T13:41:49;17.50;;;8.43;;
56391;SDS011;76123;53.584;9.978;2024-02-26T13:44:16;15.30;;;8.13;;
56391;SDS011;76123;53.584;9.978;2024-02-26T13:46:44;16.73;;;8.00;;
56391;SDS011;76123;53.584;9.978;2024-02-26T13:49:11;15.90;;;7.93;;
56391;SDS011;76123;53.584;9.978;2024-02-26T13:51:38;16.65;;;8.48;;
56391;SDS011;76123;53.584;9.978;2024-02-26T13:54:05;17.48;;;8.90;;
56391;SDS011;76123;53.584;9.978;2024-02-26T13:56:32;14.48;;;7.60;;
56391;SDS011;76123;53.584;9.978;2024-02-26T13:58:59;17.95;;;8.98;;
56391;SDS011;76123;53.584;9.978;2024-02-26T14:01:25;17.60;;;9.45;;
56391;SDS011;76123;53.584;9.978;2024-02-26T14:03:54;16.45;;;8.90;;
56391;SDS011;76123;53.584;9.978;2024-02-26T14:06:22;17.13;;;9.40;;
56391;SDS011;76123;53.584;9.978;2024-02-26T14:08:49;17.42;;;8.75;;
56391;SDS011;76123;53.584;9.978;2024-02-26T14:11:15;15.95;;;8.38;;
56391;SDS011;76123;53.584;9.978;2024-02-26T14:13:42;15.10;;;8.65;;
56391;SDS011;76123;53.584;9.978;2024-02-26T14:16:10;15.00;;;8.52;;
56391;SDS011;76123;53.584;9.978;2024-02-26T14:18:37;17.55;;;8.55;;
56391;SDS011;76123;53.584;9.978;2024-02-26T14:21:05;15.77;;;8.80;;
56391;SDS011;76123;53.584;9.978;2024-02-26T14:23:31;16.75;;;8.65;;
56391;SDS011;76123;53.584;9.978;2024-02-26T14:25:58;15.65;;;8.68;;
56391;SDS011;76123;53.584;9.978;2024-02-26T14:28:26;16.05;;;8.77;;